createdAt,value
2023-11-02T00:01:59.133Z,90.93
2023-11-02T00:04:27.511Z,90.54
2023-11-02T00:06:54.509Z,90.91
2023-11-02T00:09:21.089Z,91.04
2023-11-02T00:11:55.967Z,91.64
2023-11-02T00:14:26.894Z,91.55
2023-11-02T00:16:53.992Z,91.79
2023-11-02T00:19:29.897Z,91.26
2023-11-02T00:22:09.018Z,90.75
2023-11-02T00:24:42.584Z,90.29
2023-11-02T00:27:09.445Z,90.37
2023-11-02T00:29:36.345Z,90.35
2023-11-02T00:32:03.032Z,91.08
2023-11-02T00:34:30.388Z,93.65
2023-11-02T00:36:59.135Z,92.84
2023-11-02T00:39:26.407Z,92.99
2023-11-02T00:41:53.172Z,93.38
2023-11-02T00:44:20.434Z,92.88
2023-11-02T00:46:47.088Z,92.20
2023-11-02T00:49:22.707Z,92.55
2023-11-02T00:52:02.959Z,91.67
2023-11-02T00:55:00.626Z,92.01
2023-11-02T00:57:40.798Z,90.92
2023-11-02T01:00:08.221Z,90.75
2023-11-02T01:02:36.913Z,91.05
2023-11-02T01:05:05.749Z,90.58
2023-11-02T01:07:34.629Z,91.36
2023-11-02T01:10:03.202Z,92.41
2023-11-02T01:12:33.102Z,94.73
2023-11-02T01:15:02.019Z,93.91
2023-11-02T01:17:32.899Z,95.33
2023-11-02T01:20:07.199Z,94.76
2023-11-02T01:22:33.732Z,94.80
2023-11-02T01:25:12.803Z,96.05
2023-11-02T01:27:39.953Z,96.48
2023-11-02T01:30:30.979Z,95.12
2023-11-02T01:32:58.151Z,97.06
2023-11-02T01:35:47.394Z,97.63
2023-11-02T01:38:15.211Z,96.80
2023-11-02T01:41:02.065Z,96.28
2023-11-02T01:43:50.553Z,96.05
2023-11-02T01:46:25.256Z,96.77
2023-11-02T01:49:05.115Z,96.63
2023-11-02T01:51:56.084Z,96.54
2023-11-02T01:54:31.697Z,95.69
2023-11-02T01:57:07.224Z,96.28
2023-11-02T01:59:37.898Z,95.83
2023-11-02T02:02:38.480Z,96.51
2023-11-02T02:05:18.965Z,95.22
2023-11-02T02:08:02.144Z,94.90
2023-11-02T02:10:49.167Z,94.27
2023-11-02T02:13:24.672Z,94.38
2023-11-02T02:16:23.027Z,93.04
2023-11-02T02:19:28.705Z,93.69
2023-11-02T02:22:06.271Z,94.55
2023-11-02T02:24:58.500Z,94.77
2023-11-02T02:28:05.381Z,94.54
2023-11-02T02:31:10.417Z,94.23
2023-11-02T02:34:34.565Z,93.67
2023-11-02T02:37:11.393Z,93.96
2023-11-02T02:39:44.492Z,94.78
2023-11-02T02:42:16.397Z,93.55
2023-11-02T02:44:48.573Z,94.66
2023-11-02T02:47:20.399Z,96.20
2023-11-02T02:49:52.787Z,95.95
2023-11-02T02:52:23.722Z,95.76
2023-11-02T02:54:53.893Z,95.54
2023-11-02T02:57:22.031Z,95.53
2023-11-02T02:59:53.293Z,94.46
2023-11-02T03:02:26.524Z,94.57
2023-11-02T03:04:56.086Z,93.93
2023-11-02T03:07:24.890Z,93.95
2023-11-02T03:09:56.117Z,94.56
2023-11-02T03:12:28.027Z,94.27
2023-11-02T03:14:57.719Z,93.39
2023-11-02T03:17:45.354Z,93.46
2023-11-02T03:20:13.816Z,94.73
2023-11-02T03:22:43.359Z,96.92
2023-11-02T03:25:14.803Z,96.98
2023-11-02T03:27:50.168Z,96.65
2023-11-02T03:30:25.624Z,96.04
2023-11-02T03:33:04.651Z,96.72
2023-11-02T03:35:43.883Z,96.75
2023-11-02T03:38:21.036Z,95.68
2023-11-02T03:40:47.559Z,95.50
2023-11-02T03:43:28.971Z,95.81
2023-11-02T03:46:10.767Z,95.93
2023-11-02T03:48:53.946Z,96.16
2023-11-02T03:51:44.573Z,96.67
2023-11-02T03:54:32.808Z,97.46
2023-11-02T03:57:20.911Z,96.94
2023-11-02T03:59:52.976Z,98.04
2023-11-02T04:02:29.531Z,98.66
2023-11-02T04:05:16.405Z,98.81
2023-11-02T04:07:57.837Z,98.85
2023-11-02T04:10:27.038Z,99.08
2023-11-02T04:12:56.601Z,98.61
2023-11-02T04:15:23.587Z,97.35
2023-11-02T04:17:50.252Z,98.48
2023-11-02T04:20:16.997Z,98.78
2023-11-02T04:22:43.803Z,99.81
2023-11-02T04:25:10.541Z,100.00
2023-11-02T04:27:38.075Z,100.00
2023-11-02T04:30:06.115Z,100.00
2023-11-02T04:32:32.860Z,100.00
2023-11-02T04:35:00.155Z,100.00
2023-11-02T04:37:26.809Z,100.00
2023-11-02T04:39:53.458Z,100.00
2023-11-02T04:42:22.307Z,100.00
2023-11-02T04:44:48.990Z,100.00
2023-11-02T04:47:15.650Z,100.00
2023-11-02T04:49:42.287Z,99.25
2023-11-02T04:52:08.922Z,99.17
2023-11-02T04:54:35.779Z,99.08
2023-11-02T04:57:03.641Z,99.09
2023-11-02T04:59:46.196Z,99.06
2023-11-02T05:02:13.048Z,98.07
2023-11-02T05:04:39.889Z,98.01
2023-11-02T05:07:07.273Z,97.44
2023-11-02T05:09:34.142Z,98.26
2023-11-02T05:12:00.799Z,98.54
2023-11-02T05:14:27.466Z,97.59
2023-11-02T05:16:54.107Z,98.38
2023-11-02T05:19:20.721Z,98.05
2023-11-02T05:21:47.327Z,97.23
2023-11-02T05:24:16.207Z,97.27
2023-11-02T05:26:42.817Z,97.67
2023-11-02T05:29:09.434Z,96.75
2023-11-02T05:31:37.549Z,98.81
2023-11-02T05:34:04.537Z,98.83
2023-11-02T05:36:31.581Z,98.26
2023-11-02T05:38:58.248Z,98.51
2023-11-02T05:41:24.875Z,98.22
2023-11-02T05:43:51.601Z,98.61
2023-11-02T05:46:18.383Z,98.01
2023-11-02T05:48:45.021Z,97.60
2023-11-02T05:51:11.730Z,98.42
2023-11-02T05:53:38.404Z,99.05
2023-11-02T05:56:05.499Z,98.27
2023-11-02T05:58:32.253Z,97.54
2023-11-02T06:00:59.006Z,97.49
2023-11-02T06:03:26.434Z,97.83
2023-11-02T06:05:53.302Z,97.47
2023-11-02T06:08:20.007Z,97.35
2023-11-02T06:10:46.757Z,97.58
2023-11-02T06:13:13.429Z,97.52
2023-11-02T06:15:40.073Z,96.06
2023-11-02T06:18:08.448Z,96.81
2023-11-02T06:20:35.296Z,96.54
2023-11-02T06:23:03.321Z,95.97
2023-11-02T06:25:30.003Z,95.26
2023-11-02T06:27:56.593Z,95.02
2023-11-02T06:30:23.325Z,94.92
2023-11-02T06:32:49.953Z,93.65
2023-11-02T06:35:16.655Z,93.54
2023-11-02T06:37:59.612Z,93.86
2023-11-02T06:40:27.420Z,93.74
2023-11-02T06:42:55.026Z,93.27
2023-11-02T06:45:21.678Z,92.73
2023-11-02T06:47:48.405Z,92.82
2023-11-02T06:50:15.132Z,92.62
2023-11-02T06:52:41.862Z,91.86
2023-11-02T06:55:08.951Z,92.33
2023-11-02T06:57:35.681Z,91.56
2023-11-02T07:00:06.907Z,91.64
2023-11-02T07:02:34.238Z,91.31
2023-11-02T07:05:02.089Z,90.65
2023-11-02T07:07:28.932Z,90.06
2023-11-02T07:09:55.576Z,90.35
2023-11-02T07:12:22.184Z,90.01
2023-11-02T07:14:48.820Z,89.19
2023-11-02T07:17:16.897Z,89.59
2023-11-02T07:19:44.014Z,88.78
2023-11-02T07:22:10.691Z,88.89
2023-11-02T07:24:37.413Z,88.60
2023-11-02T07:27:04.110Z,87.49
2023-11-02T07:29:30.720Z,87.64
2023-11-02T07:31:58.032Z,87.64
2023-11-02T07:34:24.679Z,86.72
2023-11-02T07:36:53.009Z,86.53
2023-11-02T07:39:19.680Z,86.38
2023-11-02T07:41:46.298Z,85.98
2023-11-02T07:44:12.905Z,85.48
2023-11-02T07:46:39.516Z,85.80
2023-11-02T07:49:06.348Z,85.66
2023-11-02T07:51:33.208Z,84.93
2023-11-02T07:53:59.868Z,83.88
2023-11-02T07:56:27.124Z,83.21
2023-11-02T07:58:53.763Z,81.24
2023-11-02T08:01:20.589Z,82.09
2023-11-02T08:03:47.224Z,81.44
2023-11-02T08:06:14.056Z,82.01
2023-11-02T08:08:40.740Z,80.76
2023-11-02T08:11:07.354Z,80.98
2023-11-02T08:13:34.051Z,80.50
2023-11-02T08:16:01.944Z,80.32
2023-11-02T08:18:28.686Z,79.74
2023-11-02T08:20:55.472Z,79.64
2023-11-02T08:23:22.141Z,79.13
2023-11-02T08:25:49.225Z,79.14
2023-11-02T08:28:18.661Z,78.32
2023-11-02T08:30:45.392Z,77.97
2023-11-02T08:33:12.201Z,77.48
2023-11-02T08:35:38.843Z,76.96
2023-11-02T08:38:05.496Z,76.29
2023-11-02T08:40:32.116Z,74.25
2023-11-02T08:42:58.922Z,71.53
2023-11-02T08:45:25.621Z,72.33
2023-11-02T08:47:52.601Z,71.42
2023-11-02T08:50:20.377Z,71.43
2023-11-02T08:52:47.003Z,71.25
2023-11-02T08:55:13.658Z,71.45
2023-11-02T08:57:40.692Z,71.13
2023-11-02T09:00:08.975Z,69.46
2023-11-02T09:02:35.755Z,68.58
2023-11-02T09:05:02.460Z,67.95
2023-11-02T09:07:30.228Z,67.94
2023-11-02T09:09:56.887Z,68.21
2023-11-02T09:12:23.659Z,67.77
2023-11-02T09:14:50.308Z,67.37
2023-11-02T09:17:16.997Z,67.95
2023-11-02T09:19:44.932Z,67.72
2023-11-02T09:22:12.312Z,67.35
2023-11-02T09:24:39.589Z,67.67
2023-11-02T09:27:06.300Z,67.69
2023-11-02T09:29:32.947Z,66.86
2023-11-02T09:32:03.953Z,66.08
2023-11-02T09:34:32.416Z,65.33
2023-11-02T09:36:59.516Z,64.59
2023-11-02T09:39:26.239Z,64.29
2023-11-02T09:41:52.944Z,64.43
2023-11-02T09:44:20.758Z,65.24
2023-11-02T09:46:47.422Z,65.83
2023-11-02T09:49:14.234Z,65.02
2023-11-02T09:51:42.100Z,64.95
2023-11-02T09:54:09.333Z,64.56
2023-11-02T09:56:36.545Z,65.46
2023-11-02T09:59:04.422Z,65.14
2023-11-02T10:01:31.778Z,65.48
2023-11-02T10:03:58.410Z,65.67
2023-11-02T10:06:26.222Z,64.47
2023-11-02T10:08:52.863Z,64.21
2023-11-02T10:11:21.048Z,63.27
2023-11-02T10:13:50.836Z,62.97
2023-11-02T10:16:24.984Z,62.49
2023-11-02T10:18:52.263Z,62.95
2023-11-02T10:21:20.522Z,62.70
2023-11-02T10:23:52.722Z,62.88
2023-11-02T10:26:19.870Z,63.79
2023-11-02T10:28:46.766Z,63.37
2023-11-02T10:31:18.489Z,63.68
2023-11-02T10:33:49.578Z,63.57
2023-11-02T10:36:18.224Z,62.60
2023-11-02T10:38:48.986Z,62.27
2023-11-02T10:41:19.571Z,61.34
2023-11-02T10:43:47.808Z,61.98
2023-11-02T10:46:16.873Z,62.47
2023-11-02T10:48:45.095Z,62.26
2023-11-02T10:51:22.215Z,62.16
2023-11-02T10:54:07.208Z,62.72
2023-11-02T10:56:44.136Z,62.76
2023-11-02T10:59:15.567Z,62.49
2023-11-02T11:01:42.913Z,62.98
2023-11-02T11:04:11.533Z,62.79
2023-11-02T11:06:46.149Z,62.37
2023-11-02T11:09:14.473Z,62.33
2023-11-02T11:11:41.377Z,61.36
2023-11-02T11:14:09.883Z,60.59
2023-11-02T11:16:41.783Z,60.40
2023-11-02T11:19:09.500Z,59.84
2023-11-02T11:21:40.424Z,59.77
2023-11-02T11:24:18.055Z,59.21
2023-11-02T11:26:51.431Z,58.82
2023-11-02T11:29:36.761Z,58.84
2023-11-02T11:32:05.222Z,58.46
2023-11-02T11:34:57.143Z,57.06
2023-11-02T11:37:59.144Z,57.22
2023-11-02T11:40:26.087Z,58.23
2023-11-02T11:43:12.044Z,59.41
2023-11-02T11:45:44.706Z,60.46
2023-11-02T11:48:12.652Z,60.30
2023-11-02T11:50:41.619Z,60.21
2023-11-02T11:53:11.979Z,59.96
2023-11-02T11:55:39.383Z,60.22
2023-11-02T11:58:09.690Z,59.86
2023-11-02T12:00:56.768Z,59.71
2023-11-02T12:03:38.380Z,58.88
2023-11-02T12:06:11.966Z,58.52
2023-11-02T12:08:51.508Z,58.54
2023-11-02T12:11:26.169Z,58.71
2023-11-02T12:13:58.959Z,58.72
2023-11-02T12:16:33.317Z,58.41
2023-11-02T12:19:00.693Z,58.36
2023-11-02T12:21:27.621Z,58.53
2023-11-02T12:23:55.688Z,58.62
2023-11-02T12:26:25.467Z,58.60
2023-11-02T12:28:56.540Z,58.97
2023-11-02T12:31:36.642Z,59.22
2023-11-02T12:34:05.154Z,59.65
2023-11-02T12:36:32.388Z,59.61
2023-11-02T12:38:59.665Z,59.94
2023-11-02T12:41:38.407Z,59.96
2023-11-02T12:44:08.663Z,60.06
2023-11-02T12:47:06.890Z,60.23
2023-11-02T12:49:34.364Z,60.42
2023-11-02T12:52:08.859Z,60.25
2023-11-02T12:54:37.560Z,60.40
2023-11-02T12:57:07.286Z,60.64
2023-11-02T12:59:39.794Z,60.48
2023-11-02T13:02:07.626Z,60.68
2023-11-02T13:04:59.721Z,60.11
2023-11-02T13:07:29.262Z,60.84
2023-11-02T13:10:18.523Z,60.51
2023-11-02T13:12:46.179Z,60.68
2023-11-02T13:15:14.204Z,60.85
2023-11-02T13:17:44.287Z,61.16
2023-11-02T13:20:13.532Z,61.54
2023-11-02T13:22:40.150Z,61.38
2023-11-02T13:25:10.019Z,61.35
2023-11-02T13:27:37.268Z,61.68
2023-11-02T13:30:06.007Z,61.67
2023-11-02T13:32:32.709Z,61.89
2023-11-02T13:35:00.077Z,61.85
2023-11-02T13:37:28.016Z,62.40
2023-11-02T13:39:54.823Z,62.02
2023-11-02T13:42:22.949Z,62.37
2023-11-02T13:44:49.581Z,62.49
2023-11-02T13:47:16.243Z,62.29
2023-11-02T13:49:43.220Z,62.54
2023-11-02T13:52:09.880Z,62.85
2023-11-02T13:54:36.580Z,62.84
2023-11-02T13:57:03.392Z,62.99
2023-11-02T13:59:31.883Z,62.73
2023-11-02T14:01:58.874Z,62.92
2023-11-02T14:04:26.234Z,63.01
2023-11-02T14:06:57.222Z,63.01
2023-11-02T14:09:25.763Z,62.94
2023-11-02T14:11:52.800Z,63.24
2023-11-02T14:14:19.712Z,63.73
2023-11-02T14:16:46.324Z,64.05
2023-11-02T14:19:13.757Z,64.13
2023-11-02T14:21:40.632Z,64.33
2023-11-02T14:24:08.640Z,64.56
2023-11-02T14:26:35.670Z,64.92
2023-11-02T14:29:02.266Z,64.84
2023-11-02T14:31:29.912Z,65.13
2023-11-02T14:33:56.668Z,64.68
2023-11-02T14:36:25.532Z,65.26
2023-11-02T14:38:54.360Z,65.61
2023-11-02T14:41:22.004Z,65.49
2023-11-02T14:43:48.604Z,65.23
2023-11-02T14:46:15.353Z,65.53
2023-11-02T14:48:42.405Z,65.43
2023-11-02T14:51:09.121Z,65.76
2023-11-02T14:53:35.799Z,65.76
2023-11-02T14:56:02.477Z,65.39
2023-11-02T14:58:29.213Z,65.39
2023-11-02T15:00:55.941Z,65.95
2023-11-02T15:03:22.692Z,66.03
2023-11-02T15:05:50.567Z,66.20
2023-11-02T15:08:19.206Z,66.62
2023-11-02T15:10:45.959Z,66.90
2023-11-02T15:13:12.707Z,67.12
2023-11-02T15:15:39.411Z,67.40
2023-11-02T15:18:07.223Z,67.58
2023-11-02T15:20:40.082Z,67.90
2023-11-02T15:23:07.635Z,67.55
2023-11-02T15:25:35.046Z,67.58
2023-11-02T15:28:02.304Z,67.71
2023-11-02T15:30:29.083Z,67.09
2023-11-02T15:32:55.752Z,67.39
2023-11-02T15:35:22.449Z,67.52
2023-11-02T15:37:49.028Z,67.31
2023-11-02T15:40:15.701Z,67.24
2023-11-02T15:42:42.396Z,67.00
2023-11-02T15:45:10.775Z,67.54
2023-11-02T15:47:38.722Z,66.95
2023-11-02T15:50:09.236Z,67.44
2023-11-02T15:52:44.585Z,66.95
2023-11-02T15:55:12.005Z,67.27
2023-11-02T15:57:43.592Z,67.72
2023-11-02T16:00:18.036Z,67.60
2023-11-02T16:02:45.358Z,67.77
2023-11-02T16:05:12.019Z,67.90
2023-11-02T16:07:38.739Z,67.34
2023-11-02T16:10:06.706Z,67.59
2023-11-02T16:12:33.427Z,67.60
2023-11-02T16:15:00.829Z,67.48
2023-11-02T16:17:27.632Z,67.99
2023-11-02T16:19:55.232Z,68.05
2023-11-02T16:22:23.427Z,67.92
2023-11-02T16:24:50.042Z,67.85
2023-11-02T16:27:16.710Z,68.17
2023-11-02T16:29:43.702Z,67.87
2023-11-02T16:32:10.385Z,67.91
2023-11-02T16:34:42.328Z,68.24
2023-11-02T16:37:12.183Z,68.50
2023-11-02T16:39:44.123Z,68.36
2023-11-02T16:42:11.350Z,67.82
2023-11-02T16:44:38.028Z,68.10
2023-11-02T16:47:05.055Z,67.77
2023-11-02T16:49:31.839Z,68.21
2023-11-02T16:51:58.717Z,67.55
2023-11-02T16:54:25.783Z,67.14
2023-11-02T16:56:52.856Z,67.25
2023-11-02T16:59:21.535Z,67.27
2023-11-02T17:01:48.326Z,67.22
2023-11-02T17:04:15.502Z,67.42
2023-11-02T17:06:43.735Z,67.86
2023-11-02T17:09:10.587Z,67.68
2023-11-02T17:11:38.832Z,68.58
2023-11-02T17:14:06.868Z,68.33
2023-11-02T17:16:33.744Z,68.74
2023-11-02T17:19:00.465Z,68.62
2023-11-02T17:21:27.670Z,69.12
2023-11-02T17:23:55.549Z,69.00
2023-11-02T17:26:23.220Z,69.40
2023-11-02T17:28:49.935Z,69.13
2023-11-02T17:31:16.582Z,68.80
2023-11-02T17:33:45.360Z,69.23
2023-11-02T17:36:12.967Z,69.19
2023-11-02T17:38:40.192Z,69.58
2023-11-02T17:41:07.699Z,69.61
2023-11-02T17:43:35.543Z,69.65
2023-11-02T17:46:04.489Z,69.75
2023-11-02T17:48:31.340Z,69.34
2023-11-02T17:50:58.158Z,69.66
2023-11-02T17:53:24.848Z,69.32
2023-11-02T17:55:51.892Z,69.20
2023-11-02T17:58:18.551Z,69.38
2023-11-02T18:00:45.159Z,69.15
2023-11-02T18:03:15.089Z,69.26
2023-11-02T18:05:41.887Z,69.15
2023-11-02T18:08:08.596Z,69.48
2023-11-02T18:10:36.309Z,69.27
2023-11-02T18:13:03.424Z,69.37
2023-11-02T18:15:30.245Z,69.28
2023-11-02T18:17:57.068Z,69.29
2023-11-02T18:20:24.027Z,69.46
2023-11-02T18:22:50.700Z,69.42
2023-11-02T18:25:19.538Z,69.35
2023-11-02T18:27:46.610Z,69.27
2023-11-02T18:30:14.190Z,69.48
2023-11-02T18:32:41.422Z,69.19
2023-11-02T18:35:10.130Z,69.26
2023-11-02T18:37:38.516Z,69.04
2023-11-02T18:40:06.259Z,69.00
2023-11-02T18:42:33.140Z,69.15
2023-11-02T18:44:59.916Z,69.31
2023-11-02T18:47:26.547Z,69.58
2023-11-02T18:49:55.971Z,69.55
2023-11-02T18:52:23.054Z,69.43
2023-11-02T18:54:57.425Z,69.30
2023-11-02T18:57:24.693Z,69.54
2023-11-02T18:59:51.663Z,69.05
2023-11-02T19:02:19.960Z,69.40
2023-11-02T19:04:47.405Z,69.53
2023-11-02T19:07:17.399Z,69.39
2023-11-02T19:09:45.908Z,69.76
2023-11-02T19:12:13.513Z,69.80
2023-11-02T19:14:41.383Z,69.93
2023-11-02T19:17:08.411Z,69.74
2023-11-02T19:19:36.340Z,70.01
2023-11-02T19:22:03.235Z,70.13
2023-11-02T19:24:31.171Z,69.77
2023-11-02T19:26:57.868Z,69.79
2023-11-02T19:29:24.516Z,70.08
2023-11-02T19:31:52.416Z,69.91
2023-11-02T19:34:23.308Z,70.16
2023-11-02T19:36:52.033Z,70.20
2023-11-02T19:39:19.979Z,70.08
2023-11-02T19:41:46.787Z,70.13
2023-11-02T19:44:13.640Z,69.84
2023-11-02T19:46:41.303Z,70.05
2023-11-02T19:49:08.288Z,70.24
2023-11-02T19:51:35.471Z,70.56
2023-11-02T19:54:02.300Z,70.53
2023-11-02T19:56:28.954Z,70.44
2023-11-02T19:58:55.626Z,70.20
2023-11-02T20:01:22.356Z,70.20
2023-11-02T20:03:49.947Z,69.91
2023-11-02T20:06:18.065Z,70.19
2023-11-02T20:08:44.783Z,69.85
2023-11-02T20:11:11.659Z,70.18
2023-11-02T20:13:38.736Z,69.91
2023-11-02T20:16:05.581Z,69.99
2023-11-02T20:18:34.365Z,69.84
2023-11-02T20:21:01.634Z,70.00
2023-11-02T20:23:28.403Z,69.69
2023-11-02T20:25:56.296Z,69.49
2023-11-02T20:28:23.631Z,69.68
2023-11-02T20:30:50.716Z,69.37
2023-11-02T20:33:18.851Z,69.36
2023-11-02T20:35:46.579Z,69.57
2023-11-02T20:38:13.323Z,69.21
2023-11-02T20:40:40.047Z,69.07
2023-11-02T20:43:08.534Z,69.19
2023-11-02T20:45:35.230Z,68.56
2023-11-02T20:48:02.027Z,68.40
2023-11-02T20:50:28.704Z,68.82
2023-11-02T20:52:55.511Z,68.78
2023-11-02T20:55:22.113Z,68.77
2023-11-02T20:57:48.809Z,69.10
2023-11-02T21:00:21.830Z,68.94
2023-11-02T21:02:49.772Z,68.34
2023-11-02T21:05:16.542Z,68.50
2023-11-02T21:07:43.399Z,68.41
2023-11-02T21:10:10.470Z,68.45
2023-11-02T21:12:37.343Z,68.29
2023-11-02T21:15:05.556Z,68.64
2023-11-02T21:17:32.812Z,68.47
2023-11-02T21:19:59.674Z,68.16
2023-11-02T21:22:26.367Z,68.39
2023-11-02T21:24:55.219Z,68.42
2023-11-02T21:27:22.688Z,68.53
2023-11-02T21:29:49.304Z,68.57
2023-11-02T21:32:15.975Z,69.18
2023-11-02T21:34:43.257Z,69.27
2023-11-02T21:37:10.678Z,69.26
2023-11-02T21:39:38.002Z,69.01
2023-11-02T21:42:05.680Z,68.65
2023-11-02T21:44:35.296Z,68.38
2023-11-02T21:47:04.331Z,68.57
2023-11-02T21:49:31.960Z,68.89
2023-11-02T21:51:59.247Z,68.90
2023-11-02T21:54:26.529Z,68.46
2023-11-02T21:56:53.716Z,68.78
2023-11-02T21:59:20.321Z,68.23
2023-11-02T22:01:46.955Z,68.19
2023-11-02T22:04:14.467Z,68.45
2023-11-02T22:06:47.602Z,67.76
2023-11-02T22:09:15.779Z,68.25
2023-11-02T22:11:42.446Z,68.66
2023-11-02T22:14:09.405Z,68.54
2023-11-02T22:16:36.121Z,68.32
2023-11-02T22:19:02.776Z,68.35
2023-11-02T22:21:29.761Z,68.40
2023-11-02T22:23:56.394Z,67.55
2023-11-02T22:26:27.394Z,67.95
2023-11-02T22:28:54.769Z,67.80
2023-11-02T22:31:27.990Z,66.99
2023-11-02T22:33:55.216Z,67.39
2023-11-02T22:36:22.575Z,67.54
2023-11-02T22:38:49.312Z,67.60
2023-11-02T22:41:16.169Z,67.58
2023-11-02T22:43:42.769Z,67.57
2023-11-02T22:46:09.611Z,68.40
2023-11-02T22:48:38.145Z,67.99
2023-11-02T22:51:05.921Z,68.14
2023-11-02T22:53:35.529Z,67.86
2023-11-02T22:56:08.591Z,68.19
2023-11-02T22:58:35.273Z,68.16
2023-11-02T23:01:02.002Z,68.44
2023-11-02T23:03:29.621Z,67.96
2023-11-02T23:05:57.971Z,68.27
2023-11-02T23:08:24.597Z,67.98
2023-11-02T23:10:52.597Z,68.36
2023-11-02T23:13:19.267Z,68.21
2023-11-02T23:15:45.978Z,67.92
2023-11-02T23:18:12.760Z,67.79
2023-11-02T23:20:39.405Z,67.96
2023-11-02T23:23:08.567Z,68.03
2023-11-02T23:25:35.196Z,68.26
2023-11-02T23:28:01.904Z,68.18
2023-11-02T23:30:28.827Z,68.27
2023-11-02T23:32:55.446Z,68.26
2023-11-02T23:35:22.517Z,68.18
2023-11-02T23:37:49.171Z,68.57
2023-11-02T23:40:19.873Z,68.99
2023-11-02T23:42:47.729Z,68.69
2023-11-02T23:45:15.328Z,68.50
2023-11-02T23:47:42.002Z,69.05
2023-11-02T23:50:09.018Z,69.09
2023-11-02T23:52:35.833Z,68.57
2023-11-02T23:55:05.422Z,68.92
2023-11-02T23:57:32.085Z,69.15
2023-11-02T23:59:58.723Z,68.74
